Temple Terrace, Florida
Current Conditions -  °F | °C
As of 2:35 PM on Friday 31 Oct 2014 (Local Time) from KVDF Reporting Station
Clear Clear  
Wind Chill: 77°   Ceiling: Unl
Heat Index: 78°   Visibility: 10mi
Dew Point: 45°   Wind: 9mph
Humidity: 32%   Direction: 350°N
Pressure: 29.85"   Gusts: 16mph
Location:  28.05°N, 82.39°W
Report Text: KVDF 311835Z AUTO 35008G14KT 10SM CLR 25/07 A2985 RMK AO2
Loading
Personal Weather Stations






























Interactive Weather Map
Tropical Storm Tracking
New forecast layout! Learn more

10-Day Weather Forecast

Advertisements
Track Severe Weather on mobile